createdAt,value
2018-02-14T00:01:04.869Z,6.68
2018-02-14T00:03:32.531Z,5.75
2018-02-14T00:05:59.485Z,5.78
2018-02-14T00:08:27.174Z,5.47
2018-02-14T00:10:54.832Z,6.12
2018-02-14T00:13:22.522Z,6.32
2018-02-14T00:15:50.184Z,5.32
2018-02-14T00:18:17.865Z,6.10
2018-02-14T00:20:45.527Z,5.65
2018-02-14T00:23:13.381Z,4.97
2018-02-14T00:25:41.054Z,5.82
2018-02-14T00:28:08.711Z,5.53
2018-02-14T00:30:36.406Z,5.80
2018-02-14T00:33:04.084Z,6.25
2018-02-14T00:35:31.789Z,5.62
2018-02-14T00:37:59.467Z,5.45
2018-02-14T00:40:27.161Z,5.93
2018-02-14T00:42:54.851Z,5.65
2018-02-14T00:45:22.946Z,4.93
2018-02-14T00:47:50.615Z,5.40
2018-02-14T00:50:18.295Z,6.70
2018-02-14T00:52:45.982Z,6.03
2018-02-14T00:55:13.655Z,6.43
2018-02-14T00:57:41.475Z,6.32
2018-02-14T01:00:09.141Z,5.45
2018-02-14T01:02:36.821Z,4.70
2018-02-14T01:05:04.554Z,5.32
2018-02-14T01:07:32.231Z,6.35
2018-02-14T01:09:59.935Z,5.75
2018-02-14T01:12:27.595Z,6.05
2018-02-14T01:14:55.280Z,5.35
2018-02-14T01:17:23.015Z,6.72
2018-02-14T01:19:56.175Z,6.70
2018-02-14T01:22:23.860Z,5.37
2018-02-14T01:24:51.523Z,7.03
2018-02-14T01:27:19.251Z,6.32
2018-02-14T01:29:46.910Z,6.62
2018-02-14T01:32:14.582Z,5.50
2018-02-14T01:34:42.283Z,6.47
2018-02-14T01:37:09.947Z,6.22
2018-02-14T01:39:38.629Z,5.57
2018-02-14T01:42:06.303Z,6.40
2018-02-14T01:44:34.024Z,7.07
2018-02-14T01:47:01.694Z,6.53
2018-02-14T01:49:29.445Z,5.93
2018-02-14T01:51:57.134Z,5.93
2018-02-14T01:54:24.800Z,5.53
2018-02-14T01:56:52.486Z,6.45
2018-02-14T01:59:20.156Z,6.62
2018-02-14T02:01:48.051Z,6.60
2018-02-14T02:04:15.722Z,7.53
2018-02-14T02:06:43.386Z,6.87
2018-02-14T02:09:11.099Z,6.40
2018-02-14T02:11:38.759Z,5.95
2018-02-14T02:14:06.440Z,5.90
2018-02-14T02:16:34.112Z,6.03
2018-02-14T02:19:02.113Z,6.70
2018-02-14T02:21:29.783Z,5.50
2018-02-14T02:23:57.448Z,6.30
2018-02-14T02:26:25.138Z,6.78
2018-02-14T02:28:52.805Z,5.82
2018-02-14T02:31:20.522Z,5.95
2018-02-14T02:33:48.195Z,7.28
2018-02-14T02:36:15.900Z,6.95
2018-02-14T02:38:43.564Z,6.85
2018-02-14T02:41:11.240Z,5.68
2018-02-14T02:43:38.956Z,5.68
2018-02-14T02:46:06.628Z,7.03
2018-02-14T02:48:34.323Z,6.22
2018-02-14T02:51:01.996Z,6.05
2018-02-14T02:53:30.085Z,6.37
2018-02-14T02:55:57.749Z,5.80
2018-02-14T02:58:25.419Z,5.07
2018-02-14T03:00:53.102Z,5.85
2018-02-14T03:03:20.787Z,5.75
2018-02-14T03:05:48.475Z,5.65
2018-02-14T03:08:16.135Z,5.05
2018-02-14T03:10:44.236Z,5.80
2018-02-14T03:13:11.919Z,6.35
2018-02-14T03:15:39.584Z,6.15
2018-02-14T03:18:07.271Z,5.93
2018-02-14T03:20:34.935Z,4.90
2018-02-14T03:23:02.632Z,6.82
2018-02-14T03:25:30.297Z,4.97
2018-02-14T03:27:58.274Z,6.85
2018-02-14T03:30:25.947Z,5.37
2018-02-14T03:32:53.606Z,5.82
2018-02-14T03:35:21.299Z,5.50
2018-02-14T03:37:48.989Z,6.43
2018-02-14T03:40:16.677Z,5.57
2018-02-14T03:42:44.359Z,6.25
2018-02-14T03:45:12.525Z,6.50
2018-02-14T03:47:40.194Z,6.00
2018-02-14T03:50:07.859Z,7.12
2018-02-14T03:52:35.547Z,6.03
2018-02-14T03:55:03.208Z,5.90
2018-02-14T03:57:30.899Z,5.80
2018-02-14T03:59:58.572Z,5.47
2018-02-14T04:02:26.466Z,6.43
2018-02-14T04:04:54.132Z,5.00
2018-02-14T04:07:21.792Z,6.15
2018-02-14T04:09:49.480Z,6.00
2018-02-14T04:12:17.143Z,5.97
2018-02-14T04:14:44.823Z,6.32
2018-02-14T04:17:12.487Z,5.53
2018-02-14T04:19:40.177Z,6.30
2018-02-14T04:22:07.854Z,6.18
2018-02-14T04:24:35.518Z,6.35
2018-02-14T04:27:03.206Z,5.25
2018-02-14T04:29:30.871Z,6.12
2018-02-14T04:31:58.567Z,4.25
2018-02-14T04:34:26.232Z,5.45
2018-02-14T04:36:53.894Z,6.55
2018-02-14T04:39:21.592Z,6.43
2018-02-14T04:41:49.260Z,5.57
2018-02-14T04:44:16.944Z,5.20
2018-02-14T04:46:45.368Z,5.57
2018-02-14T04:49:13.071Z,6.37
2018-02-14T04:51:40.746Z,5.00
2018-02-14T04:54:08.413Z,6.30
2018-02-14T04:56:36.101Z,5.40
2018-02-14T04:59:03.767Z,6.50
2018-02-14T05:01:31.463Z,5.47
2018-02-14T05:03:59.154Z,5.50
2018-02-14T05:06:27.012Z,7.15
2018-02-14T05:08:54.680Z,5.35
2018-02-14T05:11:22.357Z,5.55
2018-02-14T05:13:50.043Z,5.35
2018-02-14T05:16:17.774Z,6.05
2018-02-14T05:18:45.479Z,5.00
2018-02-14T05:21:13.148Z,5.45
2018-02-14T05:23:41.125Z,5.65
2018-02-14T05:26:08.828Z,4.87
2018-02-14T05:28:36.490Z,6.62
2018-02-14T05:31:04.179Z,6.00
2018-02-14T05:33:31.860Z,6.20
2018-02-14T05:35:59.560Z,6.40
2018-02-14T05:38:27.227Z,6.62
2018-02-14T05:40:55.121Z,5.57
2018-02-14T05:43:22.785Z,6.20
2018-02-14T05:45:50.447Z,5.80
2018-02-14T05:48:18.134Z,4.80
2018-02-14T05:50:45.811Z,5.47
2018-02-14T05:53:13.517Z,5.95
2018-02-14T05:55:41.200Z,7.37
2018-02-14T05:58:09.086Z,5.25
2018-02-14T06:00:36.752Z,5.55
2018-02-14T06:03:04.415Z,6.90
2018-02-14T06:05:32.096Z,6.20
2018-02-14T06:07:59.759Z,6.30
2018-02-14T06:10:27.448Z,5.93
2018-02-14T06:12:55.150Z,5.50
2018-02-14T06:15:22.867Z,5.70
2018-02-14T06:17:50.539Z,5.72
2018-02-14T06:20:18.203Z,6.05
2018-02-14T06:22:45.899Z,6.00
2018-02-14T06:25:13.565Z,6.30
2018-02-14T06:27:41.260Z,5.55
2018-02-14T06:30:08.931Z,5.97
2018-02-14T06:32:37.032Z,5.12
2018-02-14T06:35:04.708Z,6.78
2018-02-14T06:37:32.370Z,6.28
2018-02-14T06:40:00.082Z,6.80
2018-02-14T06:42:27.767Z,5.80
2018-02-14T06:44:55.456Z,6.97
2018-02-14T06:47:23.119Z,6.65
2018-02-14T06:49:50.968Z,6.32
2018-02-14T06:52:18.653Z,6.62
2018-02-14T06:54:46.326Z,5.22
2018-02-14T06:57:14.021Z,5.37
2018-02-14T06:59:41.684Z,6.25
2018-02-14T07:02:09.385Z,6.53
2018-02-14T07:04:37.077Z,7.22
2018-02-14T07:07:05.119Z,5.80
2018-02-14T07:09:32.792Z,7.15
2018-02-14T07:12:00.553Z,6.40
2018-02-14T07:14:28.252Z,6.28
2018-02-14T07:16:55.925Z,6.55
2018-02-14T07:19:23.622Z,7.10
2018-02-14T07:21:51.284Z,6.07
2018-02-14T07:24:19.264Z,6.80
2018-02-14T07:26:46.933Z,6.03
2018-02-14T07:29:14.592Z,5.90
2018-02-14T07:31:41.566Z,6.15
2018-02-14T07:34:09.231Z,6.37
2018-02-14T07:36:37.367Z,7.50
2018-02-14T07:39:05.055Z,7.50
2018-02-14T07:41:32.711Z,6.90
2018-02-14T07:44:00.575Z,8.13
2018-02-14T07:46:28.259Z,8.00
2018-02-14T07:48:55.947Z,7.80
2018-02-14T07:51:23.635Z,7.82
2018-02-14T07:53:51.624Z,7.65
2018-02-14T07:56:19.299Z,7.62
2018-02-14T07:58:46.968Z,7.87
2018-02-14T08:01:14.671Z,8.35
2018-02-14T08:03:42.340Z,7.95
2018-02-14T08:06:10.029Z,8.00
2018-02-14T08:08:37.808Z,8.48
2018-02-14T08:11:05.665Z,9.23
2018-02-14T08:13:33.363Z,8.05
2018-02-14T08:16:01.047Z,7.62
2018-02-14T08:18:28.771Z,8.77
2018-02-14T08:20:56.466Z,7.97
2018-02-14T08:23:24.167Z,8.55
2018-02-14T08:25:51.860Z,8.13
2018-02-14T08:28:19.819Z,7.75
2018-02-14T08:30:47.495Z,8.35
2018-02-14T08:33:15.196Z,7.97
2018-02-14T08:35:43.113Z,9.52
2018-02-14T08:38:10.816Z,8.02
2018-02-14T08:40:38.539Z,8.18
2018-02-14T08:43:06.207Z,7.00
2018-02-14T08:45:33.971Z,8.45
2018-02-14T08:48:01.663Z,6.70
2018-02-14T08:50:30.695Z,8.35
2018-02-14T08:52:58.705Z,7.57
2018-02-14T08:55:26.765Z,9.75
2018-02-14T08:57:54.803Z,9.00
2018-02-14T09:00:22.679Z,9.10
2018-02-14T09:02:50.556Z,9.48
2018-02-14T09:05:18.221Z,7.60
2018-02-14T09:07:46.122Z,9.70
2018-02-14T09:10:14.210Z,8.48
2018-02-14T09:12:42.118Z,9.63
2018-02-14T09:15:09.843Z,8.52
2018-02-14T09:17:37.502Z,9.30
2018-02-14T09:20:05.195Z,8.85
2018-02-14T09:22:32.862Z,9.35
2018-02-14T09:25:00.527Z,8.10
2018-02-14T09:27:28.343Z,9.25
2018-02-14T09:29:56.014Z,9.75
2018-02-14T09:32:23.699Z,9.77
2018-02-14T09:34:51.380Z,7.82
2018-02-14T09:37:19.479Z,9.95
2018-02-14T09:39:47.145Z,8.95
2018-02-14T09:42:15.124Z,8.88
2018-02-14T09:44:43.200Z,8.63
2018-02-14T09:47:10.882Z,9.65
2018-02-14T09:49:38.582Z,9.88
2018-02-14T09:52:06.370Z,13.70
2018-02-14T09:54:34.542Z,10.70
2018-02-14T09:57:02.216Z,10.38
2018-02-14T09:59:29.976Z,8.65
2018-02-14T10:01:57.663Z,9.05
2018-02-14T10:04:25.327Z,10.18
2018-02-14T10:06:53.035Z,10.65
2018-02-14T10:09:20.739Z,8.68
2018-02-14T10:11:48.822Z,10.35
2018-02-14T10:14:16.783Z,10.25
2018-02-14T10:16:44.443Z,9.63
2018-02-14T10:19:12.210Z,9.77
2018-02-14T10:21:39.897Z,10.25
2018-02-14T10:24:07.608Z,8.88
2018-02-14T10:26:35.282Z,9.40
2018-02-14T10:29:03.155Z,8.48
2018-02-14T10:31:30.834Z,9.75
2018-02-14T10:33:58.538Z,8.63
2018-02-14T10:36:26.631Z,9.90
2018-02-14T10:38:54.315Z,7.85
2018-02-14T10:41:22.305Z,9.20
2018-02-14T10:43:50.225Z,8.45
2018-02-14T10:46:18.107Z,8.80
2018-02-14T10:48:45.771Z,12.20
2018-02-14T10:51:13.441Z,11.73
2018-02-14T10:53:41.144Z,8.65
2018-02-14T10:56:08.816Z,10.05
2018-02-14T10:58:36.526Z,8.35
2018-02-14T11:01:04.207Z,7.32
2018-02-14T11:03:37.357Z,6.93
2018-02-14T11:06:10.774Z,7.10
2018-02-14T11:08:38.471Z,9.23
2018-02-14T11:11:06.435Z,6.80
2018-02-14T11:13:34.576Z,6.50
2018-02-14T11:16:02.250Z,9.73
2018-02-14T11:18:30.056Z,6.65
2018-02-14T11:20:57.748Z,9.02
2018-02-14T11:23:25.471Z,6.95
2018-02-14T11:25:53.173Z,8.80
2018-02-14T11:28:20.836Z,6.62
2018-02-14T11:30:48.511Z,5.22
2018-02-14T11:33:16.203Z,6.60
2018-02-14T11:35:43.875Z,5.25
2018-02-14T11:38:11.735Z,7.12
2018-02-14T11:40:39.406Z,8.00
2018-02-14T11:43:07.403Z,6.22
2018-02-14T11:45:35.530Z,6.57
2018-02-14T11:48:03.185Z,6.55
2018-02-14T11:50:30.793Z,5.07
2018-02-14T11:52:58.476Z,5.40
2018-02-14T11:55:26.382Z,7.95
2018-02-14T11:57:54.077Z,7.40
2018-02-14T12:00:21.751Z,5.25
2018-02-14T12:02:49.475Z,7.32
2018-02-14T12:05:17.139Z,6.43
2018-02-14T12:07:44.833Z,5.32
2018-02-14T12:10:12.421Z,7.40
2018-02-14T12:12:40.645Z,5.62
2018-02-14T12:15:08.616Z,6.57
2018-02-14T12:17:36.202Z,6.13
2018-02-14T12:20:03.824Z,7.07
2018-02-14T12:22:31.416Z,6.40
2018-02-14T12:24:59.099Z,7.53
2018-02-14T12:27:26.716Z,6.80
2018-02-14T12:29:54.362Z,6.47
2018-02-14T12:32:21.957Z,6.50
2018-02-14T12:34:49.558Z,6.47
2018-02-14T12:37:17.170Z,7.27
2018-02-14T12:39:47.465Z,6.05
2018-02-14T12:42:15.366Z,6.30
2018-02-14T12:44:43.263Z,5.93
2018-02-14T12:47:11.068Z,6.03
2018-02-14T12:49:38.653Z,6.03
2018-02-14T12:52:06.282Z,5.90
2018-02-14T12:54:33.883Z,6.30
2018-02-14T12:57:01.491Z,5.70
2018-02-14T12:59:29.185Z,7.33
2018-02-14T13:01:56.787Z,7.37
2018-02-14T13:04:24.423Z,7.83
2018-02-14T13:06:52.053Z,7.77
2018-02-14T13:09:19.946Z,6.50
2018-02-14T13:11:47.907Z,6.03
2018-02-14T13:14:15.893Z,6.03
2018-02-14T13:16:43.831Z,5.90
2018-02-14T13:19:11.585Z,6.50
2018-02-14T13:21:41.104Z,7.57
2018-02-14T13:24:08.697Z,6.70
2018-02-14T13:26:36.446Z,7.93
2018-02-14T13:29:04.057Z,6.70
2018-02-14T13:31:31.653Z,6.50
2018-02-14T13:33:59.260Z,7.30
2018-02-14T13:36:26.843Z,6.13
2018-02-14T13:38:54.866Z,5.00
2018-02-14T13:41:22.513Z,5.27
2018-02-14T13:43:50.403Z,4.97
2018-02-14T13:46:18.265Z,5.87
2018-02-14T13:48:45.859Z,5.50
2018-02-14T13:51:13.462Z,4.47
2018-02-14T13:53:41.059Z,5.47
2018-02-14T13:56:08.792Z,3.93
2018-02-14T13:58:36.374Z,4.70
2018-02-14T14:01:04.096Z,5.47
2018-02-14T14:03:31.707Z,7.10
2018-02-14T14:05:59.308Z,4.70
2018-02-14T14:08:26.981Z,6.20
2018-02-14T14:10:54.591Z,6.60
2018-02-14T14:13:22.459Z,6.90
2018-02-14T14:15:50.419Z,6.50
2018-02-14T14:18:18.014Z,6.50
2018-02-14T14:20:45.632Z,5.63
2018-02-14T14:23:14.200Z,5.80
2018-02-14T14:25:41.851Z,7.43
2018-02-14T14:28:09.473Z,7.13
2018-02-14T14:30:37.115Z,7.90
2018-02-14T14:33:04.736Z,6.80
2018-02-14T14:35:32.331Z,7.20
2018-02-14T14:38:00.422Z,6.83
2018-02-14T14:40:28.068Z,6.03
2018-02-14T14:42:55.929Z,7.83
2018-02-14T14:45:23.901Z,7.50
2018-02-14T14:47:51.544Z,6.80
2018-02-14T14:50:19.142Z,6.87
2018-02-14T14:52:46.837Z,23.17
2018-02-14T14:55:14.453Z,9.97
2018-02-14T14:57:42.092Z,7.57
2018-02-14T15:00:09.956Z,6.77
2018-02-14T15:02:37.561Z,5.97
2018-02-14T15:05:05.192Z,5.40
2018-02-14T15:07:32.820Z,6.00
2018-02-14T15:10:00.439Z,6.77
2018-02-14T15:12:28.205Z,6.10
2018-02-14T15:14:56.139Z,7.73
2018-02-14T15:17:24.004Z,5.80
2018-02-14T15:19:51.603Z,5.23
2018-02-14T15:22:19.256Z,7.70
2018-02-14T15:24:46.867Z,5.67
2018-02-14T15:27:14.478Z,5.67
2018-02-14T15:29:42.089Z,5.20
2018-02-14T15:32:09.678Z,5.53
2018-02-14T15:34:37.433Z,5.83
2018-02-14T15:37:05.300Z,6.00
2018-02-14T15:39:32.939Z,6.03
2018-02-14T15:42:00.626Z,5.28
2018-02-14T15:44:28.322Z,6.50
2018-02-14T15:46:55.936Z,6.57
2018-02-14T15:49:23.532Z,5.70
2018-02-14T15:51:51.359Z,4.80
2018-02-14T15:54:18.972Z,5.40
2018-02-14T15:56:46.566Z,5.23
2018-02-14T15:59:14.427Z,4.43
2018-02-14T16:01:42.016Z,5.30
2018-02-14T16:04:09.668Z,7.27
2018-02-14T16:06:37.634Z,5.53
2018-02-14T16:09:05.321Z,5.57
2018-02-14T16:11:32.904Z,5.27
2018-02-14T16:14:00.583Z,6.70
2018-02-14T16:16:28.360Z,5.60
2018-02-14T16:18:56.033Z,5.43
2018-02-14T16:21:24.028Z,5.50
2018-02-14T16:23:52.134Z,5.22
2018-02-14T16:26:19.968Z,5.18
2018-02-14T16:28:47.639Z,6.00
2018-02-14T16:31:15.312Z,5.22
2018-02-14T16:33:43.023Z,7.30
2018-02-14T16:36:10.698Z,6.00
2018-02-14T16:38:38.383Z,6.55
2018-02-14T16:41:06.047Z,4.93
2018-02-14T16:43:33.935Z,7.10
2018-02-14T16:46:01.941Z,6.20
2018-02-14T16:48:29.972Z,5.40
2018-02-14T16:50:57.727Z,5.12
2018-02-14T16:53:25.393Z,5.28
2018-02-14T16:55:53.350Z,5.93
2018-02-14T16:58:21.250Z,5.55
2018-02-14T17:00:49.487Z,5.65
2018-02-14T17:03:17.374Z,5.45
2018-02-14T17:05:46.339Z,5.20
2018-02-14T17:08:14.561Z,5.75
2018-02-14T17:10:42.435Z,5.70
2018-02-14T17:13:10.289Z,6.35
2018-02-14T17:15:38.380Z,7.85
2018-02-14T17:18:06.740Z,7.47
2018-02-14T17:20:35.999Z,7.03
2018-02-14T17:23:05.504Z,7.07
2018-02-14T17:25:33.626Z,6.45
2018-02-14T17:28:01.593Z,6.28
2018-02-14T17:30:29.303Z,5.87
2018-02-14T17:32:56.997Z,7.35
2018-02-14T17:35:24.960Z,6.85
2018-02-14T17:37:52.632Z,5.90
2018-02-14T17:40:20.306Z,7.35
2018-02-14T17:42:48.001Z,6.10
2018-02-14T17:45:15.668Z,7.55
2018-02-14T17:47:43.364Z,6.28
2018-02-14T17:50:11.027Z,6.45
2018-02-14T17:52:39.003Z,5.50
2018-02-14T17:55:06.677Z,5.05
2018-02-14T17:57:34.449Z,5.90
2018-02-14T18:00:02.155Z,5.82
2018-02-14T18:02:29.822Z,5.95
2018-02-14T18:04:57.527Z,5.72
2018-02-14T18:07:25.284Z,5.72
2018-02-14T18:09:53.259Z,5.93
2018-02-14T18:12:20.932Z,6.68
2018-02-14T18:14:48.643Z,6.00
2018-02-14T18:17:16.336Z,5.82
2018-02-14T18:19:44.011Z,6.12
2018-02-14T18:22:11.709Z,8.00
2018-02-14T18:24:39.439Z,5.87
2018-02-14T18:27:07.149Z,7.70
2018-02-14T18:29:34.814Z,6.78
2018-02-14T18:32:02.495Z,5.60
2018-02-14T18:34:30.190Z,5.55
2018-02-14T18:36:57.854Z,5.43
2018-02-14T18:39:25.539Z,5.93
2018-02-14T18:41:53.216Z,5.85
2018-02-14T18:44:20.907Z,5.68
2018-02-14T18:46:48.585Z,6.82
2018-02-14T18:49:16.267Z,6.32
2018-02-14T18:51:44.036Z,6.03
2018-02-14T18:54:11.855Z,6.50
2018-02-14T18:56:39.792Z,5.45
2018-02-14T18:59:07.450Z,6.57
2018-02-14T19:01:35.112Z,7.12
2018-02-14T19:04:02.801Z,6.18
2018-02-14T19:06:30.468Z,6.90
2018-02-14T19:08:58.157Z,7.35
2018-02-14T19:11:25.820Z,6.47
2018-02-14T19:13:53.968Z,6.15
2018-02-14T19:16:21.636Z,6.78
2018-02-14T19:18:49.342Z,6.32
2018-02-14T19:21:17.054Z,6.50
2018-02-14T19:23:44.722Z,5.80
2018-02-14T19:26:12.435Z,6.80
2018-02-14T19:28:40.097Z,7.07
2018-02-14T19:31:07.944Z,6.25
2018-02-14T19:33:35.608Z,5.40
2018-02-14T19:36:03.284Z,5.82
2018-02-14T19:38:30.963Z,4.60
2018-02-14T19:40:58.714Z,5.35
2018-02-14T19:43:27.819Z,6.80
2018-02-14T19:45:55.513Z,7.45
2018-02-14T19:48:23.422Z,7.28
2018-02-14T19:50:51.084Z,7.47
2018-02-14T19:53:18.759Z,7.20
2018-02-14T19:55:46.522Z,6.80
2018-02-14T19:58:14.180Z,7.95
2018-02-14T20:00:41.867Z,6.70
2018-02-14T20:03:09.535Z,6.60
2018-02-14T20:05:37.364Z,6.57
2018-02-14T20:08:05.084Z,6.95
2018-02-14T20:10:32.747Z,6.53
2018-02-14T20:13:00.463Z,6.50
2018-02-14T20:15:28.124Z,6.10
2018-02-14T20:17:55.815Z,7.10
2018-02-14T20:20:23.505Z,7.18
2018-02-14T20:22:51.519Z,5.78
2018-02-14T20:25:19.185Z,5.80
2018-02-14T20:27:46.848Z,7.32
2018-02-14T20:30:14.532Z,6.43
2018-02-14T20:32:42.279Z,6.50
2018-02-14T20:35:09.964Z,6.30
2018-02-14T20:37:37.754Z,6.62
2018-02-14T20:40:05.565Z,5.35
2018-02-14T20:42:33.236Z,6.68
2018-02-14T20:45:00.903Z,7.47
2018-02-14T20:47:28.672Z,7.03
2018-02-14T20:49:56.343Z,7.22
2018-02-14T20:52:24.029Z,6.30
2018-02-14T20:54:51.691Z,5.62
2018-02-14T20:57:19.803Z,6.68
2018-02-14T20:59:47.465Z,7.30
2018-02-14T21:02:15.147Z,6.10
2018-02-14T21:04:42.833Z,7.47
2018-02-14T21:07:10.496Z,7.15
2018-02-14T21:09:38.180Z,6.60
2018-02-14T21:12:05.843Z,7.93
2018-02-14T21:14:33.540Z,7.10
2018-02-14T21:17:01.197Z,7.32
2018-02-14T21:19:28.867Z,8.85
2018-02-14T21:21:56.561Z,8.18
2018-02-14T21:24:24.228Z,7.35
2018-02-14T21:26:51.923Z,6.45
2018-02-14T21:29:19.586Z,7.10
2018-02-14T21:31:47.687Z,7.00
2018-02-14T21:34:15.351Z,7.20
2018-02-14T21:36:43.022Z,7.82
2018-02-14T21:39:10.736Z,7.80
2018-02-14T21:41:38.488Z,7.40
2018-02-14T21:44:06.512Z,6.25
2018-02-14T21:46:34.172Z,7.57
2018-02-14T21:49:01.841Z,7.00
2018-02-14T21:51:29.533Z,7.60
2018-02-14T21:53:57.195Z,7.95
2018-02-14T21:56:24.882Z,8.90
2018-02-14T21:58:52.543Z,7.87
2018-02-14T22:01:20.498Z,7.62
2018-02-14T22:03:48.159Z,8.63
2018-02-14T22:06:15.889Z,8.02
2018-02-14T22:08:43.573Z,8.30
2018-02-14T22:11:11.245Z,8.25
2018-02-14T22:13:38.937Z,8.38
2018-02-14T22:16:06.602Z,8.63
2018-02-14T22:18:34.323Z,8.73
2018-02-14T22:21:01.995Z,7.22
2018-02-14T22:23:29.674Z,9.32
2018-02-14T22:25:57.362Z,10.35
2018-02-14T22:28:25.028Z,7.30
2018-02-14T22:30:52.715Z,7.90
2018-02-14T22:33:20.479Z,8.07
2018-02-14T22:35:48.184Z,8.35
2018-02-14T22:38:15.844Z,8.77
2018-02-14T22:40:43.525Z,7.93
2018-02-14T22:43:11.204Z,8.40
2018-02-14T22:45:38.863Z,7.72
2018-02-14T22:48:06.551Z,8.55
2018-02-14T22:50:34.227Z,8.20
2018-02-14T22:53:02.077Z,7.20
2018-02-14T22:55:29.732Z,8.15
2018-02-14T22:57:57.391Z,8.23
2018-02-14T23:00:25.114Z,8.65
2018-02-14T23:02:52.798Z,7.90
2018-02-14T23:05:20.495Z,8.50
2018-02-14T23:07:48.191Z,7.80
2018-02-14T23:10:16.320Z,7.60
2018-02-14T23:12:43.982Z,7.95
2018-02-14T23:15:11.643Z,7.65
2018-02-14T23:17:39.339Z,8.57
2018-02-14T23:20:06.999Z,8.00
2018-02-14T23:22:34.782Z,7.85
2018-02-14T23:25:02.447Z,6.60
2018-02-14T23:27:30.479Z,7.93
2018-02-14T23:29:58.214Z,7.50
2018-02-14T23:32:25.867Z,8.10
2018-02-14T23:34:53.546Z,7.82
2018-02-14T23:37:21.218Z,8.05
2018-02-14T23:39:48.907Z,8.02
2018-02-14T23:42:16.572Z,7.90
2018-02-14T23:44:44.517Z,8.50
2018-02-14T23:47:12.176Z,7.43
2018-02-14T23:49:39.843Z,8.80
2018-02-14T23:52:07.528Z,8.13
2018-02-14T23:54:35.191Z,7.97
2018-02-14T23:57:02.872Z,7.93
2018-02-14T23:59:30.564Z,7.97
